Wichita Mid Continent Airport
KICT : rendu visible

Aérodrome :











RETROUVEZ-NOUS SUR...

 
LOGIN :

S'inscrire | Disclaimer

   EN    FR    IT 

 









Légende :    VFR   VFR Marginal   IFR   IFR Intensif   IFR Très Intensif
Visi : 
Plafond : 
>= 8 km
>= 3000ft
5 à 8 km
1000 à 3000 ft
1500m à 5 km
500 à 1000 ft
800 à 1500m
200 à 500 ft
< 800m
< 200 ft
Symboles :   Orages  Brouillard  Fortes neiges  Fortes précipitations  Vent > 20 kt






- Altitude de l'aérodrome : 1333 ft
- Code IATA : ICT


KICT - Wichita Mid Continent

DERNIER METAR :
  • 271753Z 04014KT 10SM FEW220 08/00 A3003 RMK AO2 SLP174 T00830000 10083 21022 50005

METARs EXPIRÉS :
  • 271653Z 04012KT 10SM FEW150 FEW220 07/M01 A3004 RMK AO2 SLP180 T00671006
  • 271553Z 03014KT 10SM FEW140 FEW220 05/M01 A3003 RMK AO2 SLP176 T00501006

TAF KICT
Valide du 27 à 18h jusqu'au 28 à 18h UTC


271744Z 2718/2818 04009KT P6SM FEW200
FM280300 04010KT P6SM -RASN BKN045
FM280600 04011KT 5SM -SNRA BR OVC025
FM281300 03013KT 3SM -SN BR OVC008



MET'MAP, la Météo Aéronautique d'un coup d'oeil ! - Copyright ORBIFLY Décembre 2007 - Disclaimer

ORBIFLY MET'MAP TEAM :

Programmation & Développement : Alexandra Zaïnal
Sur une idée originale de : Baudouin d'Aumeries
Assistance à la programmation : Marc-Olivier Méhu
Soutien technique & logistique : Manuel Goepfert

Contact : metmap@orbifly.com




SOURCES & CREDITS :

   NOAA       Earth
Advisory